createdAt,value
2022-09-09T00:04:35.587Z,6.50
2022-09-09T00:09:56.358Z,7.50
2022-09-09T00:15:22.156Z,7.40
2022-09-09T00:20:41.466Z,6.40
2022-09-09T00:25:56.532Z,6.40
2022-09-09T00:31:15.184Z,6.80
2022-09-09T00:36:29.602Z,6.60
2022-09-09T00:41:53.599Z,6.50
2022-09-09T00:47:21.469Z,6.30
2022-09-09T00:57:57.215Z,6.90
2022-09-09T01:03:21.976Z,6.80
2022-09-09T01:09:01.231Z,7.50
2022-09-09T01:14:23.186Z,6.90
2022-09-09T01:19:56.856Z,7.20
2022-09-09T01:25:26.867Z,7.70
2022-09-09T01:30:55.609Z,7.60
2022-09-09T01:36:28.102Z,7.80
2022-09-09T01:41:41.561Z,6.60
2022-09-09T01:47:10.110Z,6.20
2022-09-09T01:52:36.976Z,6.40
2022-09-09T01:57:57.429Z,6.80
2022-09-09T02:03:16.779Z,6.40
2022-09-09T02:08:42.711Z,7.10
2022-09-09T02:13:55.457Z,6.90
2022-09-09T02:19:14.431Z,6.30
2022-09-09T02:24:49.597Z,6.00
2022-09-09T02:30:04.475Z,6.30
2022-09-09T02:35:33.303Z,7.50
2022-09-09T02:40:52.687Z,6.70
2022-09-09T02:46:27.339Z,6.60
2022-09-09T02:51:44.906Z,7.40
2022-09-09T02:56:57.701Z,7.10
2022-09-09T03:02:26.559Z,7.30
2022-09-09T03:07:37.819Z,6.40
2022-09-09T03:12:45.728Z,6.70
2022-09-09T03:17:58.177Z,6.60
2022-09-09T03:23:12.378Z,7.20
2022-09-09T03:28:37.156Z,7.40
2022-09-09T03:33:51.147Z,7.60
2022-09-09T03:39:04.449Z,8.10
2022-09-09T03:44:23.740Z,8.70
2022-09-09T03:49:53.829Z,7.80
2022-09-09T03:55:07.227Z,8.40
2022-09-09T04:00:18.651Z,8.30
2022-09-09T04:05:30.048Z,8.10
2022-09-09T04:15:46.380Z,8.60
2022-09-09T04:20:55.912Z,8.30
2022-09-09T04:26:08.375Z,9.40
2022-09-09T04:31:21.389Z,9.40
2022-09-09T04:36:42.664Z,9.10
2022-09-09T04:41:51.890Z,9.90
2022-09-09T04:46:59.535Z,10.40
2022-09-09T04:52:18.538Z,11.30
2022-09-09T04:57:26.094Z,10.70
2022-09-09T05:02:33.882Z,11.40
2022-09-09T05:07:43.114Z,10.70
2022-09-09T05:12:57.442Z,11.00
2022-09-09T05:18:12.805Z,10.00
2022-09-09T05:23:31.555Z,10.60
2022-09-09T05:28:40.297Z,11.40
2022-09-09T05:33:49.296Z,13.20
2022-09-09T05:39:00.416Z,12.30
2022-09-09T05:44:15.179Z,12.90
2022-09-09T05:49:31.338Z,12.90
2022-09-09T05:54:40.238Z,14.00
2022-09-09T05:59:51.112Z,15.50
2022-09-09T06:05:00.728Z,14.90
2022-09-09T06:10:11.572Z,14.30
2022-09-09T06:15:22.604Z,15.40
2022-09-09T06:20:33.598Z,16.90
2022-09-09T06:25:42.086Z,17.30
2022-09-09T06:30:50.456Z,17.70
2022-09-09T06:36:00.290Z,17.40
2022-09-09T06:41:15.135Z,18.30
2022-09-09T06:46:29.305Z,17.70
2022-09-09T06:51:59.564Z,18.50
2022-09-09T06:57:27.095Z,17.90
2022-09-09T07:02:41.229Z,18.90
2022-09-09T07:08:58.271Z,19.00
2022-09-09T07:14:17.378Z,19.50
2022-09-09T07:19:30.432Z,19.60
2022-09-09T07:24:41.615Z,20.70
2022-09-09T07:30:26.948Z,19.00
2022-09-09T07:36:48.490Z,18.70
2022-09-09T07:41:59.588Z,20.20
2022-09-09T07:47:10.577Z,21.00
2022-09-09T07:52:54.143Z,19.50
2022-09-09T07:58:10.239Z,20.60
2022-09-09T08:04:06.000Z,21.80
2022-09-09T08:09:14.516Z,21.70
2022-09-09T08:14:26.332Z,22.10
2022-09-09T08:19:35.280Z,24.70
2022-09-09T08:24:43.666Z,24.50
2022-09-09T08:29:51.638Z,23.80
2022-09-09T08:40:20.723Z,26.30
2022-09-09T08:45:37.792Z,27.50
2022-09-09T08:50:51.927Z,29.90
2022-09-09T08:56:18.069Z,28.40
2022-09-09T09:01:48.522Z,30.00
2022-09-09T09:07:09.967Z,27.00
2022-09-09T09:12:23.357Z,27.40
2022-09-09T09:17:38.831Z,28.00
2022-09-09T09:22:52.390Z,31.00
2022-09-09T09:28:07.037Z,32.30
2022-09-09T09:33:22.860Z,31.30
2022-09-09T09:44:08.582Z,29.20
2022-09-09T09:49:18.622Z,29.80
2022-09-09T09:54:34.422Z,32.00
2022-09-09T09:59:44.560Z,32.50
2022-09-09T10:05:09.310Z,28.10
2022-09-09T10:10:24.056Z,29.10
2022-09-09T10:16:05.982Z,27.60
2022-09-09T10:21:33.095Z,28.30
2022-09-09T10:26:54.325Z,32.00
2022-09-09T10:32:15.626Z,28.20
2022-09-09T10:37:39.296Z,28.20
2022-09-09T10:42:48.008Z,26.40
2022-09-09T10:48:10.301Z,26.70
2022-09-09T10:53:30.005Z,31.20
2022-09-09T10:58:48.644Z,32.10
2022-09-09T11:04:07.787Z,29.30
2022-09-09T11:09:20.897Z,30.20
2022-09-09T11:14:37.892Z,29.20
2022-09-09T11:19:47.929Z,32.20
2022-09-09T11:25:12.125Z,33.20
2022-09-09T11:30:56.246Z,35.40
2022-09-09T11:36:27.602Z,29.50
2022-09-09T11:41:40.867Z,29.80
2022-09-09T11:46:54.855Z,28.90
2022-09-09T11:52:23.261Z,26.50
2022-09-09T11:57:38.591Z,28.00
2022-09-09T12:02:54.785Z,27.30
2022-09-09T12:08:27.099Z,27.40
2022-09-09T12:14:04.993Z,30.20
2022-09-09T12:19:27.238Z,22.70
2022-09-09T12:25:03.019Z,22.00
2022-09-09T12:30:17.763Z,20.50
2022-09-09T12:35:31.354Z,19.20
2022-09-09T12:40:41.914Z,22.00
2022-09-09T12:45:57.722Z,18.70
2022-09-09T12:51:20.170Z,16.20
2022-09-09T12:56:30.841Z,19.00
2022-09-09T13:01:41.362Z,19.60
2022-09-09T13:06:50.408Z,17.60
2022-09-09T13:12:00.229Z,15.70
2022-09-09T13:17:20.350Z,16.60
2022-09-09T13:22:35.340Z,16.20
2022-09-09T13:28:13.422Z,17.00
2022-09-09T13:33:25.810Z,18.50
2022-09-09T13:38:40.672Z,16.30
2022-09-09T13:44:01.281Z,15.80
2022-09-09T13:49:24.985Z,15.70
2022-09-09T13:54:33.226Z,17.30
2022-09-09T14:00:03.642Z,16.40
2022-09-09T14:05:14.919Z,14.60
2022-09-09T14:10:23.710Z,14.70
2022-09-09T14:15:31.850Z,17.50
2022-09-09T14:20:41.581Z,17.30
2022-09-09T14:25:53.806Z,17.40
2022-09-09T14:31:06.719Z,16.20
2022-09-09T14:36:17.641Z,16.60
2022-09-09T14:41:25.185Z,17.80
2022-09-09T14:46:35.080Z,17.40
2022-09-09T14:51:45.815Z,16.80
2022-09-09T14:56:56.349Z,14.00
2022-09-09T15:02:15.625Z,14.80
2022-09-09T15:07:23.843Z,16.10
2022-09-09T15:12:31.750Z,15.70
2022-09-09T15:17:42.090Z,16.10
2022-09-09T15:22:49.969Z,14.30
2022-09-09T15:27:57.802Z,14.50
2022-09-09T15:33:15.110Z,16.80
2022-09-09T15:38:26.164Z,16.10
2022-09-09T15:43:37.898Z,16.70
2022-09-09T15:48:56.998Z,17.10
2022-09-09T15:54:06.982Z,17.10
2022-09-09T15:59:15.992Z,16.40
2022-09-09T16:04:27.314Z,19.30
2022-09-09T16:09:36.891Z,18.30
2022-09-09T16:14:44.730Z,19.50
2022-09-09T16:19:52.599Z,21.60
2022-09-09T16:25:00.921Z,22.00
2022-09-09T16:30:12.357Z,19.10
2022-09-09T16:35:21.245Z,19.60
2022-09-09T16:40:51.392Z,19.30
2022-09-09T16:45:59.060Z,20.70
2022-09-09T16:51:10.092Z,19.40
2022-09-09T16:56:22.710Z,19.00
2022-09-09T17:01:32.946Z,19.10
2022-09-09T17:06:42.507Z,18.00
2022-09-09T17:11:53.622Z,19.80
2022-09-09T17:17:25.114Z,23.30
2022-09-09T17:22:45.815Z,20.70
2022-09-09T17:27:58.699Z,20.40
2022-09-09T17:33:08.237Z,22.00
2022-09-09T17:38:16.202Z,21.00
2022-09-09T17:43:24.432Z,23.50
2022-09-09T17:48:34.209Z,24.90
2022-09-09T17:53:47.221Z,25.60
2022-09-09T17:59:10.814Z,25.30
2022-09-09T18:04:23.627Z,24.10
2022-09-09T18:09:56.707Z,21.70
2022-09-09T18:15:14.409Z,21.60
2022-09-09T18:20:37.363Z,24.10
2022-09-09T18:25:56.983Z,22.70
2022-09-09T18:31:23.831Z,23.00
2022-09-09T18:36:34.448Z,21.90
2022-09-09T18:41:45.332Z,22.60
2022-09-09T18:46:59.556Z,22.40
2022-09-09T18:52:31.042Z,21.40
2022-09-09T18:57:55.406Z,22.50
2022-09-09T19:03:04.140Z,24.40
2022-09-09T19:08:15.551Z,22.10
2022-09-09T19:13:26.505Z,21.90
2022-09-09T19:18:34.431Z,22.80
2022-09-09T19:23:42.863Z,22.80
2022-09-09T19:28:52.385Z,23.60
2022-09-09T19:39:08.670Z,24.50
2022-09-09T19:44:20.033Z,24.10
2022-09-09T19:49:27.509Z,25.20
2022-09-09T19:54:35.504Z,26.50
2022-09-09T19:59:46.137Z,29.70
2022-09-09T20:04:55.784Z,28.30
2022-09-09T20:10:03.561Z,28.50
2022-09-09T20:20:18.573Z,29.40
2022-09-09T20:25:26.272Z,29.90
2022-09-09T20:30:38.501Z,30.30
2022-09-09T20:35:51.367Z,32.10
2022-09-09T20:41:03.545Z,31.80
2022-09-09T20:46:12.072Z,31.40
2022-09-09T20:51:22.065Z,33.70
2022-09-09T20:56:42.964Z,35.30
2022-09-09T21:01:53.316Z,34.40
2022-09-09T21:07:02.815Z,34.20
2022-09-09T21:12:10.939Z,36.60
2022-09-09T21:17:19.917Z,40.20
2022-09-09T21:22:28.045Z,38.40
2022-09-09T21:27:38.999Z,39.20
2022-09-09T21:32:47.028Z,38.90
2022-09-09T21:37:58.359Z,37.40
2022-09-09T21:43:06.297Z,39.90
2022-09-09T21:48:26.377Z,39.00
2022-09-09T21:53:50.971Z,40.00
2022-09-09T21:59:10.039Z,39.10
2022-09-09T22:04:22.711Z,40.30
2022-09-09T22:09:32.699Z,40.60
2022-09-09T22:14:52.248Z,38.70
2022-09-09T22:20:13.748Z,40.50
2022-09-09T22:25:28.998Z,39.20
2022-09-09T22:30:40.285Z,39.60
2022-09-09T22:36:03.256Z,37.70
2022-09-09T22:41:17.721Z,38.00
2022-09-09T22:46:27.913Z,38.90
2022-09-09T22:51:50.281Z,38.90
2022-09-09T22:56:58.535Z,36.00
2022-09-09T23:02:13.525Z,37.10
2022-09-09T23:07:29.327Z,40.40
2022-09-09T23:12:47.705Z,38.70
2022-09-09T23:18:04.657Z,38.60
2022-09-09T23:23:15.345Z,37.80
2022-09-09T23:28:23.405Z,39.40
2022-09-09T23:33:43.705Z,34.80
2022-09-09T23:38:56.451Z,39.30
2022-09-09T23:44:24.496Z,43.00
2022-09-09T23:49:43.088Z,40.50
2022-09-09T23:54:57.665Z,42.30
